Time;durP1;ratioP1;P1;durP2;ratioP2;P2;SDS_P1;SDS_P2;PMS_P1;PMS_P2;Temp;Humidity;BMP_temperature;BMP_pressure;BME280_temperature;BME280_humidity;BME280_pressure;Samples;Min_cycle;Max_cycle;Signal;HPM_P1;HPM_P2
2022/10/18 00:03:47;;;;;;;6.32;5.80;;;;;;;12.98;100.00;102551.53;10374786;28;20083;-73
2022/10/18 00:08:48;;;;;;;8.88;5.22;;;;;;;12.88;100.00;102562.59;10376940;28;20038;-73
2022/10/18 00:13:48;;;;;;;14.32;5.60;;;;;;;12.82;100.00;102551.56;10375974;28;20482;-73
2022/10/18 00:18:48;;;;;;;11.80;7.00;;;;;;;12.74;100.00;102553.28;10376077;28;20385;-72
2022/10/18 00:23:49;;;;;;;8.32;5.68;;;;;;;12.73;100.00;102543.44;10374838;28;20034;-73
2022/10/18 00:28:55;;;;;;;14.52;7.35;;;;;;;12.68;100.00;102553.94;10374129;28;20100;-72
2022/10/18 00:34:02;;;;;;;8.43;6.75;;;;;;;12.57;100.00;102554.28;10374290;28;20029;-73
2022/10/18 00:39:03;;;;;;;9.07;5.70;;;;;;;12.48;100.00;102560.75;10375501;28;20034;-73
2022/10/18 00:44:11;;;;;;;10.85;6.45;;;;;;;12.47;100.00;102569.91;10357914;28;20394;-72
2022/10/18 00:49:16;;;;;;;10.02;7.05;;;;;;;12.56;100.00;102563.47;10374785;28;20058;-73
2022/10/18 00:54:16;;;;;;;10.07;6.80;;;;;;;12.73;100.00;102564.28;10358002;28;20029;-73
2022/10/18 00:59:17;;;;;;;16.75;6.35;;;;;;;12.73;100.00;102565.19;10340925;28;20061;-72
2022/10/18 01:04:18;;;;;;;7.20;6.25;;;;;;;12.60;100.00;102567.53;10356370;28;20037;-73
2022/10/18 01:09:39;;;;;;;9.48;6.40;;;;;;;12.42;100.00;102577.75;10377426;28;20022;-72
2022/10/18 01:15:09;;;;;;;6.90;5.95;;;;;;;12.29;100.00;102586.38;10380780;28;20046;-73
2022/10/18 01:20:33;;;;;;;18.52;7.38;;;;;;;12.27;100.00;102597.41;10364029;28;20046;-72
2022/10/18 01:25:52;;;;;;;19.20;6.93;;;;;;;12.12;100.00;102584.63;10366601;28;20038;-73
2022/10/18 01:30:59;;;;;;;9.48;6.80;;;;;;;12.07;100.00;102574.28;10382344;28;20025;-72
2022/10/18 01:36:13;;;;;;;;;;;;;;;12.01;100.00;102575.78;10381135;28;20061;-73
2022/10/18 01:41:14;;;;;;;9.52;6.38;;;;;;;12.00;100.00;102575.97;10396625;28;19918;-73
2022/10/18 01:46:16;;;;;;;19.08;7.43;;;;;;;11.95;100.00;102572.91;10363483;28;20045;-72
2022/10/18 01:51:26;;;;;;;13.35;7.28;;;;;;;11.97;100.00;102579.03;10380718;28;20033;-72
2022/10/18 01:57:02;;;;;;;14.00;7.22;;;;;;;11.91;100.00;102591.38;10364334;28;20129;-73
2022/10/18 02:02:08;;;;;;;10.52;6.60;;;;;;;11.83;100.00;102594.88;10382128;28;20025;-73
2022/10/18 02:07:34;;;;;;;7.45;6.50;;;;;;;11.77;100.00;102600.97;10378566;28;20030;-72
2022/10/18 02:12:34;;;;;;;7.95;5.68;;;;;;;11.64;100.00;102590.56;10372475;28;20046;-72
2022/10/18 02:17:34;;;;;;;11.45;7.25;;;;;;;11.62;100.00;102599.91;10362236;28;20409;-72
2022/10/18 02:22:35;;;;;;;12.32;7.00;;;;;;;11.52;100.00;102607.28;10377364;28;20042;-72
2022/10/18 02:27:36;;;;;;;7.88;5.90;;;;;;;11.48;100.00;102605.91;10379308;28;20041;-72
2022/10/18 02:32:43;;;;;;;8.65;5.32;;;;;;;11.58;100.00;102595.78;10361591;28;20034;-72
2022/10/18 02:37:44;;;;;;;8.30;6.93;;;;;;;11.65;100.00;102602.28;10362049;28;20034;-72
2022/10/18 02:42:55;;;;;;;15.43;6.55;;;;;;;11.49;100.00;102597.63;10379198;28;20076;-72
2022/10/18 02:47:56;;;;;;;10.20;5.53;;;;;;;11.41;100.00;102597.56;10362494;28;20120;-72
2022/10/18 02:52:56;;;;;;;10.52;6.47;;;;;;;11.39;100.00;102589.63;10378404;28;20038;-72
2022/10/18 02:57:57;;;;;;;8.38;5.78;;;;;;;11.30;100.00;102592.44;10376640;28;20060;-72
2022/10/18 03:02:57;;;;;;;15.63;5.82;;;;;;;11.32;100.00;102595.81;10378539;28;20429;-72
2022/10/18 03:07:57;;;;;;;10.63;5.15;;;;;;;11.30;100.00;102590.59;10377756;28;20108;-72
2022/10/18 03:12:58;;;;;;;13.43;6.10;;;;;;;11.23;100.00;102588.66;10378044;28;20046;-72
2022/10/18 03:17:58;;;;;;;8.80;5.32;;;;;;;11.21;100.00;102596.13;10375532;28;20038;-72
2022/10/18 03:22:59;;;;;;;12.57;5.57;;;;;;;11.21;100.00;102598.81;10376298;28;20096;-65
2022/10/18 03:27:59;;;;;;;6.50;5.40;;;;;;;11.22;100.00;102598.66;10376422;28;20034;-65
2022/10/18 03:32:59;;;;;;;13.25;5.70;;;;;;;11.21;100.00;102610.53;10374418;28;20180;-65
2022/10/18 03:38:00;;;;;;;15.30;6.85;;;;;;;11.17;100.00;102599.16;10375009;28;20044;-66
2022/10/18 03:43:00;;;;;;;9.98;5.43;;;;;;;11.28;100.00;102614.28;10375699;28;20033;-66
2022/10/18 03:48:01;;;;;;;21.58;5.63;;;;;;;11.23;100.00;102613.06;10376462;28;20037;-64
2022/10/18 03:53:01;;;;;;;18.42;5.82;;;;;;;11.29;100.00;102607.84;10374547;28;20065;-65
2022/10/18 03:58:01;;;;;;;13.68;5.82;;;;;;;11.35;100.00;102600.94;10375063;28;20466;-65
2022/10/18 04:03:02;;;;;;;8.57;4.97;;;;;;;11.32;100.00;102593.97;10374813;28;20056;-65
2022/10/18 04:08:03;;;;;;;20.15;6.50;;;;;;;11.21;100.00;102602.38;10373872;28;20121;-65
2022/10/18 04:13:04;;;;;;;12.02;6.10;;;;;;;11.12;100.00;102601.47;10372808;28;20065;-65
2022/10/18 04:18:05;;;;;;;17.38;4.55;;;;;;;11.10;100.00;102592.66;10375053;28;20038;-64
2022/10/18 04:23:05;;;;;;;9.25;5.07;;;;;;;11.12;100.00;102595.22;10374912;28;20034;-64
2022/10/18 04:28:06;;;;;;;17.48;4.35;;;;;;;11.17;100.00;102593.72;10357683;28;20042;-67
2022/10/18 04:33:06;;;;;;;8.60;4.85;;;;;;;11.06;100.00;102612.09;10373872;28;20366;-65
2022/10/18 04:38:06;;;;;;;13.43;5.20;;;;;;;10.94;100.00;102615.09;10372574;28;20081;-65
2022/10/18 04:43:07;;;;;;;13.15;7.18;;;;;;;10.78;100.00;102614.94;10376768;28;20156;-66
2022/10/18 04:48:07;;;;;;;8.98;4.72;;;;;;;10.73;100.00;102613.72;10380269;28;20041;-66
2022/10/18 04:53:08;;;;;;;11.57;5.95;;;;;;;10.64;100.00;102629.06;10382817;28;20108;-65
2022/10/18 04:58:08;;;;;;;14.52;6.75;;;;;;;10.48;100.00;102632.47;10379823;28;20038;-63
2022/10/18 05:03:09;;;;;;;9.32;5.80;;;;;;;10.35;100.00;102632.84;10380546;28;20037;-64
2022/10/18 05:08:09;;;;;;;7.68;5.03;;;;;;;10.28;100.00;102639.03;10381117;28;20030;-65
2022/10/18 05:13:10;;;;;;;11.82;5.03;;;;;;;10.22;100.00;102637.75;10380176;28;20482;-64
2022/10/18 05:18:10;;;;;;;13.00;6.00;;;;;;;10.25;100.00;102653.69;10381679;28;20385;-64
2022/10/18 05:23:10;;;;;;;13.82;6.35;;;;;;;10.13;100.00;102647.63;10381689;28;20042;-64
2022/10/18 05:28:11;;;;;;;31.63;8.85;;;;;;;10.02;100.00;102647.84;10366862;28;20053;-65
2022/10/18 05:33:11;;;;;;;68.85;10.23;;;;;;;10.08;100.00;102641.81;10388204;28;20413;-65
2022/10/18 05:38:11;;;;;;;125.63;18.75;;;;;;;10.09;100.00;102653.50;10387769;28;20121;-64
2022/10/18 05:43:12;;;;;;;17.70;6.05;;;;;;;10.04;100.00;102661.22;10381276;28;20069;-64
2022/10/18 05:48:12;;;;;;;16.60;6.10;;;;;;;9.94;100.00;102667.53;10381079;28;20053;-65
2022/10/18 05:53:13;;;;;;;11.27;7.60;;;;;;;9.85;100.00;102663.00;10381355;28;20378;-64
2022/10/18 05:58:13;;;;;;;23.23;7.88;;;;;;;9.80;100.00;102673.44;10379184;28;20084;-64
2022/10/18 06:03:13;;;;;;;17.55;7.25;;;;;;;9.75;100.00;102668.47;10380329;28;20076;-64
2022/10/18 06:08:14;;;;;;;48.53;11.48;;;;;;;9.82;100.00;102695.78;10379627;28;20034;-65
2022/10/18 06:13:14;;;;;;;18.98;6.03;;;;;;;9.83;100.00;102697.50;10379016;28;20050;-65
2022/10/18 06:18:15;;;;;;;8.82;5.82;;;;;;;9.83;100.00;102694.81;10377845;28;20053;-65
2022/10/18 06:23:15;;;;;;;7.65;5.88;;;;;;;9.76;100.00;102707.19;10378259;28;20042;-65
2022/10/18 06:28:15;;;;;;;5.78;4.75;;;;;;;9.76;100.00;102715.31;10378403;28;20041;-65
2022/10/18 06:33:16;;;;;;;6.20;4.70;;;;;;;9.92;100.00;102710.16;10377567;28;20030;-65
2022/10/18 06:38:16;;;;;;;7.07;4.75;;;;;;;10.23;100.00;102723.38;10377904;28;20034;-66
2022/10/18 06:43:16;;;;;;;7.97;5.50;;;;;;;10.41;100.00;102724.31;10377574;28;20041;-66
2022/10/18 06:48:17;;;;;;;10.10;5.28;;;;;;;11.48;100.00;102725.28;10360303;28;20382;-65
2022/10/18 06:53:17;;;;;;;12.52;8.10;;;;;;;12.20;100.00;102726.75;10376468;28;20117;-64
2022/10/18 06:58:18;;;;;;;13.30;6.97;;;;;;;12.79;100.00;102727.59;10377324;28;20049;-65
2022/10/18 07:03:20;;;;;;;22.30;9.05;;;;;;;13.39;100.00;102736.50;10377131;28;20029;-65
2022/10/18 07:08:20;;;;;;;13.10;7.40;;;;;;;13.96;100.00;102739.09;10374698;28;20470;-65
2022/10/18 07:13:22;;;;;;;9.35;6.47;;;;;;;14.58;100.00;102733.75;10376714;28;20054;-65
2022/10/18 07:18:22;;;;;;;15.27;8.23;;;;;;;15.13;100.00;102744.66;10376646;28;20052;-65
2022/10/18 07:23:23;;;;;;;17.35;6.85;;;;;;;15.60;100.00;102755.28;10375321;28;20045;-65
2022/10/18 07:28:23;;;;;;;16.35;8.77;;;;;;;16.04;100.00;102755.38;10375033;28;20510;-65
2022/10/18 07:33:24;;;;;;;11.07;8.80;;;;;;;16.38;100.00;102769.50;10376834;28;20046;-65
2022/10/18 07:38:25;;;;;;;12.20;7.97;;;;;;;16.78;100.00;102779.03;10374950;28;20386;-65
2022/10/18 07:43:25;;;;;;;20.27;8.32;;;;;;;17.33;100.00;102773.94;10373436;28;20034;-65
2022/10/18 07:48:26;;;;;;;30.33;9.32;;;;;;;17.76;100.00;102793.03;10374759;28;20038;-66
2022/10/18 07:53:27;;;;;;;23.80;9.20;;;;;;;18.10;100.00;102784.03;10373254;28;20263;-65
2022/10/18 07:58:27;;;;;;;9.27;7.45;;;;;;;18.50;100.00;102795.22;10373856;28;20034;-66
2022/10/18 08:03:28;;;;;;;16.58;6.43;;;;;;;18.68;100.00;102802.91;10373656;28;20030;-65
2022/10/18 08:08:28;;;;;;;10.75;5.80;;;;;;;19.39;100.00;102808.78;10374003;28;20034;-65
2022/10/18 08:13:29;;;;;;;9.38;4.65;;;;;;;19.73;100.00;102794.03;10372758;28;20455;-65
2022/10/18 08:18:29;;;;;;;8.70;4.45;;;;;;;19.97;100.00;102792.53;10354902;28;20433;-65
2022/10/18 08:23:30;;;;;;;4.80;4.10;;;;;;;20.31;100.00;102803.44;10373017;28;20096;-65
2022/10/18 08:28:30;;;;;;;4.63;3.33;;;;;;;20.53;100.00;102804.03;10373328;28;20062;-64
2022/10/18 08:33:31;;;;;;;12.75;4.25;;;;;;;20.73;100.00;102810.28;10373275;28;20030;-64
2022/10/18 08:38:35;;;;;;;10.90;3.38;;;;;;;21.11;100.00;102810.28;10375421;28;20042;-65
2022/10/18 08:43:39;;;;;;;8.68;4.05;;;;;;;21.31;100.00;102798.28;10372904;28;20061;-64
2022/10/18 08:48:49;;;;;;;11.52;4.00;;;;;;;21.53;100.00;102816.16;10356764;28;20030;-65
2022/10/18 08:54:18;;;;;;;4.22;2.13;;;;;;;21.40;100.00;102810.75;10372452;28;20033;-64
2022/10/18 08:59:19;;;;;;;5.60;2.15;;;;;;;21.43;100.00;102815.00;10362252;28;20038;-66
2022/10/18 09:04:38;;;;;;;7.20;2.90;;;;;;;21.77;100.00;102802.63;10373918;28;20092;-65
2022/10/18 09:09:45;;;;;;;4.90;2.42;;;;;;;22.18;100.00;102803.94;10373737;28;20362;-65
2022/10/18 09:14:48;;;;;;;11.85;7.25;;;;;;;22.61;100.00;102808.50;10371777;28;20061;-66
2022/10/18 09:20:01;;;;;;;12.13;2.72;;;;;;;22.75;100.00;102826.63;10355971;28;20030;-66
2022/10/18 09:25:09;;;;;;;5.47;2.70;;;;;;;22.76;100.00;102831.06;10371533;28;20482;-64
2022/10/18 09:30:18;;;;;;;7.97;3.03;;;;;;;22.95;100.00;102824.44;10359712;28;20516;-65
2022/10/18 09:35:20;;;;;;;3.30;2.30;;;;;;;23.11;100.00;102835.94;10362773;28;20036;-64
2022/10/18 09:40:23;;;;;;;10.02;2.42;;;;;;;23.19;100.00;102828.13;10379016;28;20034;-65
2022/10/18 09:45:33;;;;;;;5.20;2.13;;;;;;;23.27;100.00;102854.59;10379735;28;20065;-64
2022/10/18 09:50:41;;;;;;;4.82;2.58;;;;;;;23.49;100.00;102849.38;10379554;28;20037;-64
2022/10/18 09:55:58;;;;;;;6.60;1.98;;;;;;;23.60;100.00;102861.53;10377954;28;20477;-66
2022/10/18 10:00:58;;;;;;;4.43;2.50;;;;;;;23.78;100.00;102864.25;10345177;28;20124;-64
2022/10/18 10:06:23;;;;;;;12.90;5.43;;;;;;;24.07;100.00;102864.41;10376874;28;20038;-65
2022/10/18 10:11:44;;;;;;;5.57;3.55;;;;;;;24.18;100.00;102871.84;10373514;28;20053;-65
2022/10/18 10:16:47;;;;;;;13.30;2.63;;;;;;;24.37;100.00;102870.63;10377589;28;20085;-65
2022/10/18 10:21:48;;;;;;;3.60;1.80;;;;;;;24.63;100.00;102862.91;10378862;28;20125;-65
2022/10/18 10:26:49;;;;;;;4.00;2.17;;;;;;;24.73;100.00;102867.81;10378042;28;20042;-64
2022/10/18 10:32:01;;;;;;;10.57;2.28;;;;;;;24.74;100.00;102872.28;10376324;28;20033;-64
2022/10/18 10:37:01;;;;;;;4.88;1.88;;;;;;;24.91;100.00;102877.88;10377730;28;20053;-64
2022/10/18 10:42:01;;;;;;;1.45;1.35;;;;;;;25.10;100.00;102884.09;10376748;28;20041;-64
2022/10/18 10:47:02;;;;;;;4.68;2.05;;;;;;;25.08;100.00;102884.34;10376288;28;20069;-65
2022/10/18 10:52:03;;;;;;;2.00;1.90;;;;;;;24.88;100.00;102879.22;10377711;28;20042;-64
2022/10/18 10:57:18;;;;;;;4.22;2.40;;;;;;;24.76;100.00;102897.81;10375587;28;20428;-65
2022/10/18 11:02:23;;;;;;;5.38;2.35;;;;;;;25.05;100.00;102898.72;10358552;28;20037;-65
2022/10/18 11:07:26;;;;;;;2.70;1.80;;;;;;;24.77;100.00;102902.28;10376132;28;20061;-64
2022/10/18 11:12:37;;;;;;;4.15;2.05;;;;;;;24.54;100.00;102901.25;10374543;28;20589;-65
2022/10/18 11:17:50;;;;;;;5.30;1.92;;;;;;;24.68;100.00;102892.66;10376729;28;20041;-64
2022/10/18 11:23:07;;;;;;;2.90;2.22;;;;;;;24.77;100.00;102897.56;10374443;28;20026;-65
2022/10/18 11:28:22;;;;;;;2.10;1.30;;;;;;;24.63;100.00;102895.31;10376837;28;20061;-64
2022/10/18 11:33:28;;;;;;;7.03;2.23;;;;;;;24.65;100.00;102893.97;10375389;28;20025;-66
2022/10/18 11:38:41;;;;;;;;;;;;;;;24.56;100.00;102876.03;10376455;28;20414;-64
2022/10/18 11:43:53;;;;;;;2.67;1.83;;;;;;;24.55;100.00;102880.75;10373900;28;20004;-65
2022/10/18 11:49:21;;;;;;;8.02;2.38;;;;;;;24.40;100.00;102894.22;10359338;28;20030;-66
2022/10/18 11:54:43;;;;;;;4.10;1.92;;;;;;;24.36;100.00;102896.63;10375002;28;20022;-65
2022/10/18 11:59:54;;;;;;;2.10;1.38;;;;;;;24.42;100.00;102885.72;10375606;28;20033;-65
2022/10/18 12:04:57;;;;;;;1.92;1.83;;;;;;;24.66;100.00;102880.97;10374742;28;20042;-65
2022/10/18 12:09:57;;;;;;;4.38;2.42;;;;;;;24.55;100.00;102888.22;10374948;28;20037;-65
2022/10/18 12:15:00;;;;;;;2.33;1.70;;;;;;;24.56;100.00;102881.59;10374410;28;20054;-65
2022/10/18 12:20:11;;;;;;;2.92;1.58;;;;;;;24.29;100.00;102898.69;10374034;28;20030;-65
2022/10/18 12:25:12;;;;;;;2.70;1.80;;;;;;;24.00;100.00;102874.75;10357638;28;20038;-65
2022/10/18 12:30:26;;;;;;;1.25;1.25;;;;;;;23.92;100.00;102883.41;10372934;28;20037;-65
2022/10/18 12:35:26;;;;;;;2.63;1.63;;;;;;;23.71;100.00;102876.50;10372590;28;20037;-65
2022/10/18 12:40:47;;;;;;;1.83;1.45;;;;;;;23.70;100.00;102875.66;10356147;28;20120;-65
2022/10/18 12:45:53;;;;;;;3.08;1.83;;;;;;;23.52;100.00;102873.81;10372748;28;20036;-66
2022/10/18 12:51:15;;;;;;;;;;;;;;;23.39;100.00;102877.63;10358071;28;20080;-65
2022/10/18 12:56:27;;;;;;;11.02;2.65;;;;;;;23.35;100.00;102875.53;10372983;28;20281;-65
2022/10/18 13:01:54;;;;;;;1.50;1.40;;;;;;;23.13;100.00;102872.44;10372811;28;20038;-66
2022/10/18 13:06:58;;;;;;;2.10;1.67;;;;;;;22.90;100.00;102878.69;10378591;28;20481;-66
2022/10/18 13:12:20;;;;;;;5.90;2.35;;;;;;;22.62;100.00;102870.94;10381179;28;20057;-65
2022/10/18 13:17:46;;;;;;;2.63;2.35;;;;;;;22.33;100.00;102856.81;10379917;28;20049;-66
2022/10/18 13:23:20;;;;;;;5.97;1.30;;;;;;;22.43;100.00;102859.94;10382544;28;20073;-66
2022/10/18 13:28:26;;;;;;;1.50;1.30;;;;;;;22.20;100.00;102849.53;10380437;28;20034;-65
2022/10/18 13:33:38;;;;;;;2.83;1.60;;;;;;;22.25;100.00;102854.38;10383238;28;20037;-67
2022/10/18 13:38:56;;;;;;;1.75;0.98;;;;;;;22.06;100.00;102848.81;10384809;28;20042;-65
2022/10/18 13:43:56;;;;;;;9.82;2.33;;;;;;;22.04;100.00;102850.09;10384070;28;20394;-66
2022/10/18 13:49:20;;;;;;;7.13;1.63;;;;;;;21.86;100.00;102855.56;10383800;28;20044;-66
2022/10/18 13:54:32;;;;;;;6.88;2.03;;;;;;;21.42;100.00;102857.41;10384609;28;20294;-66
2022/10/18 14:00:00;;;;;;;2.67;1.50;;;;;;;21.28;100.00;102862.97;10384762;28;20034;-66
2022/10/18 14:05:33;;;;;;;2.20;1.85;;;;;;;21.31;100.00;102861.66;10387072;28;20072;-67
2022/10/18 14:10:39;;;;;;;6.55;2.78;;;;;;;20.97;100.00;102851.94;10372208;28;20037;-66
2022/10/18 14:15:39;;;;;;;4.63;2.53;;;;;;;20.84;100.00;102863.84;10368033;28;20061;-67
2022/10/18 14:20:50;;;;;;;2.63;1.90;;;;;;;20.56;100.00;102861.41;10371213;28;20046;-66
2022/10/18 14:26:12;;;;;;;1.95;1.25;;;;;;;20.33;100.00;102859.13;10367576;28;20036;-66
2022/10/18 14:31:14;;;;;;;3.90;2.00;;;;;;;19.91;100.00;102869.50;10371000;28;20351;-66
2022/10/18 14:36:15;;;;;;;2.15;1.65;;;;;;;19.64;100.00;102869.50;10367630;28;20041;-67
2022/10/18 14:41:19;;;;;;;2.33;2.05;;;;;;;19.49;100.00;102866.06;10365039;28;20029;-67
2022/10/18 14:46:27;;;;;;;5.47;1.98;;;;;;;19.39;100.00;102874.72;10383549;28;20341;-67
2022/10/18 14:51:33;;;;;;;10.38;1.95;;;;;;;19.24;100.00;102872.19;10381679;28;20037;-66
2022/10/18 14:56:37;;;;;;;3.50;2.03;;;;;;;18.78;100.00;102867.34;10378887;28;20061;-66
2022/10/18 15:01:38;;;;;;;4.75;1.85;;;;;;;18.18;100.00;102874.34;10375993;28;20034;-66
2022/10/18 15:06:41;;;;;;;7.85;3.40;;;;;;;17.71;100.00;102873.13;10376442;28;20038;-67
2022/10/18 15:11:42;;;;;;;7.15;2.28;;;;;;;17.20;100.00;102881.44;10374895;28;20050;-67
2022/10/18 15:16:42;;;;;;;4.47;1.67;;;;;;;16.71;100.00;102876.59;10343726;28;20029;-66
2022/10/18 15:22:09;;;;;;;7.30;1.60;;;;;;;16.19;100.00;102881.09;10342246;28;20076;-66
2022/10/18 15:27:23;;;;;;;1.77;1.63;;;;;;;15.89;100.00;102880.22;10371358;28;20089;-66
2022/10/18 15:32:24;;;;;;;1.98;1.17;;;;;;;15.58;100.00;102883.84;10374897;28;20116;-66
2022/10/18 15:37:29;;;;;;;1.83;1.67;;;;;;;15.36;100.00;102879.22;10373401;28;20034;-66
2022/10/18 15:42:35;;;;;;;9.15;2.58;;;;;;;15.20;100.00;102892.97;10374425;28;20052;-67
2022/10/18 15:47:35;;;;;;;9.57;2.22;;;;;;;15.21;100.00;102897.41;10375840;28;20442;-67
2022/10/18 15:52:37;;;;;;;11.57;3.00;;;;;;;15.27;100.00;102894.78;10373750;28;20065;-67
2022/10/18 15:57:38;;;;;;;2.75;1.98;;;;;;;14.94;100.00;102891.41;10357902;28;20026;-66
2022/10/18 16:02:38;;;;;;;6.40;2.47;;;;;;;14.73;100.00;102891.16;10357430;28;20041;-66
2022/10/18 16:07:38;;;;;;;3.70;1.98;;;;;;;14.51;100.00;102890.03;10375276;28;20076;-66
2022/10/18 16:12:39;;;;;;;12.48;3.17;;;;;;;14.34;100.00;102898.22;10373860;28;20069;-66
2022/10/18 16:17:39;;;;;;;3.78;2.15;;;;;;;14.10;100.00;102896.41;10373097;28;20169;-66
2022/10/18 16:22:40;;;;;;;4.80;2.53;;;;;;;13.93;100.00;102898.25;10375162;28;20358;-66
2022/10/18 16:27:40;;;;;;;5.55;2.40;;;;;;;13.72;100.00;102904.25;10374146;28;20049;-66
2022/10/18 16:32:40;;;;;;;11.80;2.83;;;;;;;13.49;100.00;102906.75;10373610;28;20042;-66
2022/10/18 16:37:42;;;;;;;4.95;2.20;;;;;;;13.30;100.00;102911.66;10373837;28;20038;-65
2022/10/18 16:42:42;;;;;;;6.38;2.72;;;;;;;13.14;100.00;102902.38;10372849;28;20061;-65
2022/10/18 16:47:43;;;;;;;3.30;2.22;;;;;;;12.97;100.00;102897.91;10373432;28;20069;-67
2022/10/18 16:52:43;;;;;;;13.13;2.47;;;;;;;12.85;100.00;102904.66;10340700;28;20108;-65
2022/10/18 16:57:44;;;;;;;9.52;3.03;;;;;;;12.68;100.00;102907.31;10373949;28;20030;-67
2022/10/18 17:02:44;;;;;;;13.45;2.58;;;;;;;12.46;100.00;102908.72;10372460;28;20033;-66
2022/10/18 17:07:45;;;;;;;8.73;2.75;;;;;;;12.30;100.00;102930.34;10373202;28;20038;-67
2022/10/18 17:12:45;;;;;;;4.93;2.42;;;;;;;12.19;100.00;102936.91;10355334;28;20397;-67
2022/10/18 17:17:48;;;;;;;6.18;2.75;;;;;;;12.07;100.00;102941.72;10374038;28;20070;-65
2022/10/18 17:22:49;;;;;;;3.45;3.03;;;;;;;11.95;100.00;102945.69;10371690;28;20037;-67
2022/10/18 17:27:49;;;;;;;11.55;3.22;;;;;;;11.82;100.00;102951.50;10372963;28;20041;-66
2022/10/18 17:32:49;;;;;;;5.03;3.17;;;;;;;11.71;100.00;102951.75;10372784;28;20030;-68
2022/10/18 17:37:52;;;;;;;5.68;2.72;;;;;;;11.66;100.00;102951.34;10372622;28;20469;-68
2022/10/18 17:42:52;;;;;;;5.32;2.63;;;;;;;11.59;100.00;102956.53;10374389;28;20034;-67
2022/10/18 17:47:53;;;;;;;9.07;2.65;;;;;;;11.50;100.00;102951.19;10372640;28;20057;-67
2022/10/18 17:52:53;;;;;;;11.57;2.78;;;;;;;11.41;100.00;102959.22;10379130;28;20497;-67
2022/10/18 17:57:54;;;;;;;7.43;3.00;;;;;;;11.28;100.00;102969.56;10378591;28;20466;-66
2022/10/18 18:02:58;;;;;;;22.45;3.97;;;;;;;11.22;100.00;102974.75;10362176;28;20056;-66
2022/10/18 18:07:59;;;;;;;7.65;3.53;;;;;;;11.20;100.00;102983.06;10378216;28;20053;-67
2022/10/18 18:12:59;;;;;;;9.15;3.17;;;;;;;11.11;100.00;102983.97;10379660;28;20057;-67
2022/10/18 18:18:00;;;;;;;15.27;3.90;;;;;;;10.97;100.00;102979.00;10361887;28;20060;-66
2022/10/18 18:23:00;;;;;;;7.05;4.03;;;;;;;10.93;100.00;102984.72;10377518;28;20041;-66
2022/10/18 18:28:01;;;;;;;9.02;4.68;;;;;;;10.78;100.00;102972.66;10377684;28;20109;-66
2022/10/18 18:33:01;;;;;;;16.92;5.43;;;;;;;10.74;100.00;102975.81;10376462;28;20068;-68
2022/10/18 18:38:02;;;;;;;23.60;5.63;;;;;;;10.71;100.00;102991.38;10360611;28;20144;-65
2022/10/18 18:43:02;;;;;;;10.32;5.32;;;;;;;10.63;100.00;102995.84;10378127;28;20045;-66
2022/10/18 18:48:02;;;;;;;9.00;4.15;;;;;;;10.51;100.00;102994.28;10376921;28;20470;-68
2022/10/18 18:53:03;;;;;;;17.92;4.65;;;;;;;10.44;100.00;102997.56;10377075;28;20088;-67
2022/10/18 18:58:03;;;;;;;19.35;5.95;;;;;;;10.40;100.00;102989.88;10377708;28;20069;-66
2022/10/18 19:03:04;;;;;;;7.47;4.00;;;;;;;10.33;100.00;102977.91;10376237;28;20442;-67
2022/10/18 19:08:04;;;;;;;15.93;4.22;;;;;;;10.24;100.00;102985.00;10376736;28;20064;-66
2022/10/18 19:13:05;;;;;;;10.27;3.40;;;;;;;10.13;100.00;102977.06;10375563;28;20092;-69
2022/10/18 19:18:05;;;;;;;13.85;3.95;;;;;;;10.13;100.00;102993.31;10375152;28;20445;-68
2022/10/18 19:23:05;;;;;;;10.65;5.28;;;;;;;10.15;100.00;102983.19;10359313;28;20057;-67
2022/10/18 19:28:06;;;;;;;7.68;2.83;;;;;;;10.14;100.00;102997.72;10357931;28;20037;-69
2022/10/18 19:33:06;;;;;;;8.13;4.20;;;;;;;10.15;100.00;102992.16;10375883;28;20031;-67
2022/10/18 19:38:07;;;;;;;10.52;5.53;;;;;;;10.13;100.00;102993.31;10375259;28;20056;-68
2022/10/18 19:43:07;;;;;;;4.93;3.42;;;;;;;10.17;100.00;102992.00;10359118;28;20041;-68
2022/10/18 19:48:08;;;;;;;8.85;4.63;;;;;;;10.13;100.00;102990.59;10358196;28;20096;-66
2022/10/18 19:53:08;;;;;;;19.65;6.10;;;;;;;10.10;100.00;102991.72;10374819;28;20037;-70
2022/10/18 19:58:08;;;;;;;22.35;3.92;;;;;;;10.12;100.00;102994.31;10358599;28;20029;-68
2022/10/18 20:03:09;;;;;;;28.35;4.72;;;;;;;10.10;100.00;102990.88;10380003;28;20038;-68
2022/10/18 20:08:09;;;;;;;23.73;4.60;;;;;;;10.10;100.00;102971.94;10382115;28;20052;-68
2022/10/18 20:13:09;;;;;;;8.32;4.70;;;;;;;10.08;100.00;102972.06;10377333;28;20080;-66
2022/10/18 20:18:10;;;;;;;24.58;5.55;;;;;;;10.01;100.00;102963.66;10375418;28;20046;-68
2022/10/18 20:23:10;;;;;;;15.80;5.40;;;;;;;9.97;100.00;102966.81;10374710;28;20034;-69
2022/10/18 20:28:11;;;;;;;29.17;5.40;;;;;;;10.01;100.00;102969.06;10374395;28;20100;-66
2022/10/18 20:33:11;;;;;;;8.43;5.15;;;;;;;10.03;100.00;102960.81;10374355;28;20034;-66
2022/10/18 20:38:11;;;;;;;15.43;4.30;;;;;;;9.97;100.00;102964.94;10373310;28;20141;-66
2022/10/18 20:43:12;;;;;;;30.05;5.72;;;;;;;9.90;100.00;102958.41;10372265;28;20120;-68
2022/10/18 20:48:12;;;;;;;17.75;5.20;;;;;;;9.90;100.00;102971.09;10356238;28;20041;-67
2022/10/18 20:53:13;;;;;;;5.75;4.32;;;;;;;9.84;100.00;102971.66;10373132;28;20053;-69
2022/10/18 20:58:13;;;;;;;12.43;6.20;;;;;;;9.77;100.00;102969.50;10373133;28;20038;-66
2022/10/18 21:03:14;;;;;;;14.80;5.95;;;;;;;9.68;100.00;102959.53;10373133;28;20421;-68
2022/10/18 21:08:14;;;;;;;28.40;5.75;;;;;;;9.61;100.00;102958.41;10373017;28;20069;-67
2022/10/18 21:13:14;;;;;;;12.75;5.03;;;;;;;9.57;100.00;102970.47;10373381;28;20064;-67
2022/10/18 21:18:15;;;;;;;19.13;6.43;;;;;;;9.49;100.00;102968.47;10373401;28;20069;-67
2022/10/18 21:23:15;;;;;;;19.35;5.28;;;;;;;9.51;100.00;102968.34;10357704;28;20061;-67
2022/10/18 21:28:16;;;;;;;14.27;5.35;;;;;;;9.47;100.00;102975.84;10380373;28;20046;-66
2022/10/18 21:33:16;;;;;;;9.35;5.25;;;;;;;9.50;100.00;102972.03;10380834;28;20038;-66
2022/10/18 21:38:17;;;;;;;11.48;4.63;;;;;;;9.49;100.00;102965.78;10379845;28;20045;-66
2022/10/18 21:43:17;;;;;;;17.08;5.20;;;;;;;9.44;100.00;102959.91;10380545;28;20038;-67
2022/10/18 21:48:17;;;;;;;13.48;6.70;;;;;;;9.46;100.00;102952.53;10362787;28;20413;-67
2022/10/18 21:53:18;;;;;;;19.52;7.03;;;;;;;9.36;100.00;102940.00;10378392;28;20034;-66
2022/10/18 21:58:18;;;;;;;17.55;7.72;;;;;;;9.32;100.00;102956.50;10362906;28;20030;-66
2022/10/18 22:03:22;;;;;;;13.55;7.72;;;;;;;9.26;100.00;102958.91;10379859;28;20034;-66
2022/10/18 22:08:22;;;;;;;12.93;6.53;;;;;;;9.21;100.00;102958.44;10379204;28;20229;-66
2022/10/18 22:13:22;;;;;;;20.88;6.28;;;;;;;9.11;100.00;102952.16;10362808;28;20049;-66
2022/10/18 22:18:23;;;;;;;19.73;7.82;;;;;;;9.07;100.00;102952.44;10361185;28;20533;-66
2022/10/18 22:23:23;;;;;;;17.58;6.30;;;;;;;9.01;100.00;102944.88;10377200;28;20126;-66
2022/10/18 22:28:24;;;;;;;14.00;6.15;;;;;;;8.99;100.00;102954.09;10362544;28;20355;-66
2022/10/18 22:33:24;;;;;;;17.67;6.18;;;;;;;8.95;100.00;102953.53;10378210;28;20038;-66
2022/10/18 22:38:24;;;;;;;15.38;6.28;;;;;;;8.96;100.00;102951.69;10377390;28;20535;-67
2022/10/18 22:43:25;;;;;;;22.55;6.68;;;;;;;8.94;100.00;102956.38;10379235;28;20034;-68
2022/10/18 22:48:25;;;;;;;19.48;7.15;;;;;;;8.92;100.00;102967.31;10360714;28;20038;-70
2022/10/18 22:53:26;;;;;;;14.88;6.15;;;;;;;8.88;100.00;102957.78;10360721;28;20080;-67
2022/10/18 22:58:26;;;;;;;10.98;5.53;;;;;;;8.85;100.00;102966.16;10378745;28;20052;-67